createdAt,value
2019-05-02T00:01:58.535Z,39.70
2019-05-02T00:04:27.093Z,39.77
2019-05-02T00:07:06.041Z,40.20
2019-05-02T00:09:36.676Z,37.33
2019-05-02T00:12:08.003Z,39.97
2019-05-02T00:14:38.648Z,37.53
2019-05-02T00:17:08.632Z,41.60
2019-05-02T00:19:37.135Z,44.77
2019-05-02T00:22:12.215Z,42.23
2019-05-02T00:24:40.969Z,40.27
2019-05-02T00:27:09.338Z,43.87
2019-05-02T00:29:37.994Z,42.90
2019-05-02T00:32:06.501Z,39.43
2019-05-02T00:34:35.038Z,45.63
2019-05-02T00:37:04.223Z,44.40
2019-05-02T00:39:32.629Z,44.90
2019-05-02T00:42:12.117Z,40.73
2019-05-02T00:44:31.284Z,41.73
2019-05-02T00:47:01.381Z,43.27
2019-05-02T00:49:30.863Z,42.33
2019-05-02T00:52:01.388Z,41.30
2019-05-02T00:54:29.782Z,38.53
2019-05-02T00:56:58.276Z,42.10
2019-05-02T00:59:26.709Z,43.20
2019-05-02T01:01:59.965Z,38.87
2019-05-02T01:04:31.375Z,41.73
2019-05-02T01:06:59.866Z,40.13
2019-05-02T01:09:28.747Z,38.53
2019-05-02T01:11:57.219Z,41.23
2019-05-02T01:14:27.133Z,42.60
2019-05-02T01:20:01.348Z,38.67
2019-05-02T01:22:29.755Z,41.17
2019-05-02T01:24:58.273Z,37.90
2019-05-02T01:27:45.806Z,43.80
2019-05-02T01:30:37.279Z,46.37
2019-05-02T01:33:07.777Z,44.37
2019-05-02T01:35:37.930Z,40.03
2019-05-02T01:38:26.550Z,43.17
2019-05-02T01:40:54.734Z,44.07
2019-05-02T01:43:31.959Z,44.33
2019-05-02T01:46:00.503Z,42.83
2019-05-02T01:48:29.053Z,43.80
2019-05-02T01:50:57.476Z,41.43
2019-05-02T01:53:29.183Z,43.33
2019-05-02T01:55:57.758Z,43.37
2019-05-02T01:58:26.289Z,42.60
2019-05-02T02:00:54.716Z,43.93
2019-05-02T02:03:23.191Z,43.70
2019-05-02T02:05:51.632Z,46.93
2019-05-02T02:08:20.045Z,45.17
2019-05-02T02:10:50.712Z,43.23
2019-05-02T02:13:19.004Z,43.97
2019-05-02T02:15:47.703Z,44.23
2019-05-02T02:18:17.201Z,44.03
2019-05-02T02:21:02.199Z,41.70
2019-05-02T02:23:44.977Z,44.27
2019-05-02T02:26:15.806Z,46.17
2019-05-02T02:28:44.292Z,41.33
2019-05-02T02:31:12.721Z,42.13
2019-05-02T02:33:47.661Z,42.73
2019-05-02T02:36:11.394Z,43.60
2019-05-02T02:38:39.819Z,42.50
2019-05-02T02:41:12.922Z,42.60
2019-05-02T02:43:38.445Z,40.30
2019-05-02T02:46:08.527Z,38.03
2019-05-02T02:48:40.542Z,39.73
2019-05-02T02:51:07.876Z,46.67
2019-05-02T02:53:36.305Z,41.33
2019-05-02T02:56:07.210Z,46.33
2019-05-02T02:58:44.605Z,37.67
2019-05-02T03:01:05.911Z,38.63
2019-05-02T03:03:35.451Z,38.10
2019-05-02T03:06:05.514Z,37.63
2019-05-02T03:08:44.584Z,43.43
2019-05-02T03:11:04.826Z,35.57
2019-05-02T03:13:51.160Z,38.47
2019-05-02T03:16:18.302Z,35.83
2019-05-02T03:18:46.801Z,35.90
2019-05-02T03:21:20.914Z,39.77
2019-05-02T03:23:45.396Z,37.00
2019-05-02T03:26:15.465Z,35.07
2019-05-02T03:28:44.037Z,33.80
2019-05-02T03:31:23.918Z,32.03
2019-05-02T03:33:54.273Z,30.63
2019-05-02T03:36:29.304Z,31.37
2019-05-02T03:38:43.822Z,31.67
2019-05-02T03:41:13.119Z,32.23
2019-05-02T03:43:43.319Z,33.73
2019-05-02T03:46:13.518Z,32.27
2019-05-02T03:48:41.902Z,31.87
2019-05-02T03:51:19.881Z,35.17
2019-05-02T03:53:40.544Z,35.53
2019-05-02T03:56:11.541Z,35.00
2019-05-02T03:58:39.353Z,36.50
2019-05-02T04:01:07.843Z,38.80
2019-05-02T04:03:41.092Z,41.07
2019-05-02T04:06:06.593Z,35.30
2019-05-02T04:08:36.488Z,37.13
2019-05-02T04:11:16.538Z,37.80
2019-05-02T04:13:45.034Z,40.43
2019-05-02T04:16:15.469Z,36.37
2019-05-02T04:18:54.446Z,33.10
2019-05-02T04:21:14.538Z,34.30
2019-05-02T04:23:43.006Z,37.30
2019-05-02T04:26:14.352Z,40.03
2019-05-02T04:28:45.635Z,34.97
2019-05-02T04:31:13.788Z,39.17
2019-05-02T04:33:42.329Z,35.43
2019-05-02T04:36:15.173Z,36.33
2019-05-02T04:38:47.056Z,38.10
2019-05-02T04:41:11.518Z,38.83
2019-05-02T04:43:50.362Z,36.00
2019-05-02T04:46:17.937Z,32.97
2019-05-02T04:48:48.696Z,36.50
2019-05-02T04:51:16.526Z,32.40
2019-05-02T04:53:45.008Z,27.37
2019-05-02T04:56:11.108Z,28.57
2019-05-02T04:58:40.758Z,32.00
2019-05-02T05:01:10.242Z,27.90
2019-05-02T05:03:38.967Z,30.57
2019-05-02T05:06:12.195Z,31.17
2019-05-02T05:08:38.912Z,30.47
2019-05-02T05:11:08.006Z,26.20
2019-05-02T05:13:37.448Z,29.50
2019-05-02T05:16:08.154Z,30.50
2019-05-02T05:18:37.821Z,31.47
2019-05-02T05:21:10.332Z,33.07
2019-05-02T05:23:38.311Z,31.83
2019-05-02T05:26:07.318Z,31.37
2019-05-02T05:28:42.708Z,27.80
2019-05-02T05:31:07.702Z,28.30
2019-05-02T05:33:37.756Z,29.57
2019-05-02T05:36:08.240Z,26.60
2019-05-02T05:38:40.426Z,27.30
2019-05-02T05:41:11.165Z,29.83
2019-05-02T05:43:38.128Z,30.43
2019-05-02T05:46:10.685Z,31.77
2019-05-02T05:48:40.759Z,36.30
2019-05-02T05:51:07.490Z,29.00
2019-05-02T05:53:37.684Z,30.37
2019-05-02T05:56:07.929Z,30.67
2019-05-02T05:58:39.799Z,34.87
2019-05-02T06:01:09.829Z,29.00
2019-05-02T06:03:41.894Z,33.70
2019-05-02T06:06:08.274Z,35.10
2019-05-02T06:08:37.096Z,32.27
2019-05-02T06:11:05.548Z,37.00
2019-05-02T06:13:33.987Z,35.90
2019-05-02T06:16:03.495Z,31.20
2019-05-02T06:18:36.238Z,32.73
2019-05-02T06:21:03.230Z,35.00
2019-05-02T06:23:36.378Z,33.77
2019-05-02T06:26:07.773Z,38.40
2019-05-02T06:28:36.202Z,34.63
2019-05-02T06:31:07.243Z,42.00
2019-05-02T06:33:33.543Z,36.87
2019-05-02T06:36:02.538Z,41.13
2019-05-02T06:38:31.193Z,34.23
2019-05-02T06:40:59.628Z,33.23
2019-05-02T06:43:28.122Z,33.03
2019-05-02T06:45:56.536Z,36.07
2019-05-02T06:48:24.993Z,35.97
2019-05-02T06:50:53.403Z,38.20
2019-05-02T06:53:21.812Z,39.97
2019-05-02T06:55:50.253Z,39.93
2019-05-02T06:58:18.678Z,35.37
2019-05-02T07:00:57.473Z,37.33
2019-05-02T07:03:17.436Z,36.67
2019-05-02T07:05:48.909Z,42.90
2019-05-02T07:08:16.224Z,35.07
2019-05-02T07:10:45.292Z,36.00
2019-05-02T07:13:15.023Z,34.80
2019-05-02T07:15:48.556Z,37.43
2019-05-02T07:18:23.873Z,36.10
2019-05-02T07:20:52.491Z,43.50
2019-05-02T07:23:20.916Z,37.23
2019-05-02T07:25:49.416Z,36.37
2019-05-02T07:28:17.903Z,38.40
2019-05-02T07:30:46.468Z,40.33
2019-05-02T07:33:14.881Z,37.67
2019-05-02T07:35:43.386Z,41.40
2019-05-02T07:38:11.790Z,41.73
2019-05-02T07:40:40.702Z,39.07
2019-05-02T07:43:13.484Z,39.73
2019-05-02T07:45:40.248Z,38.03
2019-05-02T07:48:12.688Z,39.43
2019-05-02T07:50:41.336Z,37.97
2019-05-02T07:53:13.959Z,40.13
2019-05-02T07:55:40.846Z,37.27
2019-05-02T07:58:10.185Z,37.37
2019-05-02T08:00:38.687Z,42.13
2019-05-02T08:03:07.307Z,40.13
2019-05-02T08:05:35.684Z,39.23
2019-05-02T08:08:04.223Z,39.87
2019-05-02T08:10:32.705Z,38.87
2019-05-02T08:13:01.115Z,38.57
2019-05-02T08:15:29.557Z,44.47
2019-05-02T08:17:58.007Z,37.73
2019-05-02T08:20:26.427Z,37.53
2019-05-02T08:22:54.864Z,37.33
2019-05-02T08:25:23.360Z,45.10
2019-05-02T08:27:56.417Z,41.23
2019-05-02T08:30:26.593Z,42.37
2019-05-02T08:32:55.047Z,37.90
2019-05-02T08:35:23.619Z,42.33
2019-05-02T08:37:52.145Z,41.43
2019-05-02T08:40:20.593Z,45.43
2019-05-02T08:42:49.040Z,40.90
2019-05-02T08:45:17.534Z,40.83
2019-05-02T08:47:45.957Z,42.57
2019-05-02T08:50:14.908Z,41.87
2019-05-02T08:52:44.207Z,42.23
2019-05-02T08:55:13.185Z,43.60
2019-05-02T08:57:41.594Z,49.67
2019-05-02T09:00:12.435Z,47.37
2019-05-02T09:02:42.035Z,48.43
2019-05-02T09:05:11.508Z,47.67
2019-05-02T09:07:42.771Z,49.47
2019-05-02T09:10:11.458Z,49.27
2019-05-02T09:12:42.333Z,47.50
2019-05-02T09:15:11.816Z,57.57
2019-05-02T09:17:46.085Z,52.13
2019-05-02T09:20:18.706Z,54.93
2019-05-02T09:22:41.859Z,55.83
2019-05-02T09:25:12.605Z,53.87
2019-05-02T09:27:42.013Z,49.43
2019-05-02T09:30:17.209Z,62.63
2019-05-02T09:32:42.870Z,49.97
2019-05-02T09:35:11.826Z,56.77
2019-05-02T09:37:41.920Z,49.80
2019-05-02T09:40:16.371Z,55.00
2019-05-02T09:42:42.963Z,53.03
2019-05-02T09:45:16.659Z,50.10
2019-05-02T09:47:55.773Z,49.67
2019-05-02T09:50:20.680Z,52.80
2019-05-02T09:52:47.300Z,51.83
2019-05-02T09:55:17.505Z,49.67
2019-05-02T09:57:46.449Z,47.97
2019-05-02T10:00:26.732Z,48.73
2019-05-02T10:02:53.096Z,52.07
2019-05-02T10:05:23.058Z,47.03
2019-05-02T10:07:52.583Z,49.87
2019-05-02T10:10:21.948Z,52.70
2019-05-02T10:12:52.133Z,52.27
2019-05-02T10:15:22.256Z,48.63
2019-05-02T10:17:51.942Z,44.40
2019-05-02T10:20:23.502Z,44.67
2019-05-02T10:22:52.953Z,47.73
2019-05-02T10:25:23.172Z,49.37
2019-05-02T10:27:52.384Z,43.10
2019-05-02T10:30:23.590Z,49.50
2019-05-02T10:32:57.136Z,52.07
2019-05-02T10:35:28.042Z,48.83
2019-05-02T10:37:54.111Z,45.93
2019-05-02T10:40:22.727Z,50.20
2019-05-02T10:42:52.211Z,42.73
2019-05-02T10:45:22.506Z,47.17
2019-05-02T10:47:52.713Z,46.30
2019-05-02T10:50:25.307Z,47.90
2019-05-02T10:52:53.745Z,45.83
2019-05-02T10:55:24.157Z,44.30
2019-05-02T10:57:52.833Z,43.70
2019-05-02T11:00:24.283Z,44.87
2019-05-02T11:03:12.045Z,43.50
2019-05-02T11:05:42.412Z,46.20
2019-05-02T11:08:12.003Z,45.57
2019-05-02T11:10:42.290Z,47.57
2019-05-02T11:13:12.568Z,45.43
2019-05-02T11:15:59.243Z,42.87
2019-05-02T11:18:40.253Z,43.57
2019-05-02T11:21:06.741Z,48.07
2019-05-02T11:23:29.667Z,47.00
2019-05-02T11:25:58.114Z,46.13
2019-05-02T11:28:26.550Z,45.10
2019-05-02T11:30:56.944Z,43.43
2019-05-02T11:33:25.205Z,48.23
2019-05-02T11:35:53.709Z,43.90
2019-05-02T11:38:45.092Z,40.77
2019-05-02T11:40:52.312Z,41.90
2019-05-02T11:43:22.323Z,40.20
2019-05-02T11:45:55.881Z,46.50
2019-05-02T11:48:22.556Z,45.20
2019-05-02T11:50:52.246Z,42.73
2019-05-02T11:53:28.858Z,46.90
2019-05-02T11:55:53.259Z,46.43
2019-05-02T11:58:22.982Z,48.23
2019-05-02T12:00:52.308Z,47.43
2019-05-02T12:03:22.782Z,46.10
2019-05-02T12:05:52.379Z,53.13
2019-05-02T12:08:22.645Z,43.37
2019-05-02T12:10:52.024Z,46.60
2019-05-02T12:13:22.550Z,45.43
2019-05-02T12:15:51.932Z,41.90
2019-05-02T12:18:23.182Z,41.73
2019-05-02T12:20:51.957Z,41.93
2019-05-02T12:23:22.673Z,45.33
2019-05-02T12:25:52.002Z,40.90
2019-05-02T12:28:22.785Z,43.93
2019-05-02T12:30:51.905Z,45.67
2019-05-02T12:33:22.422Z,48.67
2019-05-02T12:35:52.461Z,43.10
2019-05-02T12:38:22.930Z,39.50
2019-05-02T12:40:52.072Z,43.17
2019-05-02T12:43:22.742Z,38.73
2019-05-02T12:45:52.797Z,43.40
2019-05-02T12:48:22.047Z,42.90
2019-05-02T12:50:52.789Z,38.57
2019-05-02T12:53:21.893Z,42.67
2019-05-02T12:55:52.533Z,43.70
2019-05-02T12:58:21.849Z,42.90
2019-05-02T13:00:52.880Z,44.10
2019-05-02T13:03:40.266Z,36.70
2019-05-02T13:06:08.894Z,39.33
2019-05-02T13:08:49.326Z,46.33
2019-05-02T13:11:22.277Z,39.60
2019-05-02T13:13:53.357Z,37.97
2019-05-02T13:16:22.641Z,41.77
2019-05-02T13:18:51.890Z,39.73
2019-05-02T13:21:24.833Z,37.23
2019-05-02T13:23:54.891Z,40.63
2019-05-02T13:26:27.154Z,43.10
2019-05-02T13:28:53.557Z,43.17
2019-05-02T13:31:26.808Z,41.47
2019-05-02T13:34:11.962Z,39.93
2019-05-02T13:36:51.860Z,41.93
2019-05-02T13:39:28.056Z,33.80
2019-05-02T13:41:56.497Z,41.10
2019-05-02T13:44:43.166Z,35.10
2019-05-02T13:47:13.234Z,38.90
2019-05-02T13:49:53.256Z,41.77
2019-05-02T13:52:11.882Z,37.53
2019-05-02T13:54:40.277Z,40.13
2019-05-02T13:57:08.787Z,37.17
2019-05-02T13:59:37.395Z,39.23
2019-05-02T14:02:07.464Z,39.73
2019-05-02T14:04:35.885Z,44.17
2019-05-02T14:07:07.721Z,39.73
2019-05-02T14:09:36.235Z,39.07
2019-05-02T14:12:11.753Z,39.07
2019-05-02T14:14:42.224Z,40.40
2019-05-02T14:17:11.700Z,40.80
2019-05-02T14:19:42.059Z,43.43
2019-05-02T14:22:12.740Z,42.30
2019-05-02T14:24:42.178Z,40.23
2019-05-02T14:27:12.893Z,38.87
2019-05-02T14:29:42.402Z,40.97
2019-05-02T14:32:21.394Z,41.73
2019-05-02T14:34:45.207Z,43.00
2019-05-02T14:37:13.620Z,44.87
2019-05-02T14:39:43.471Z,43.90
2019-05-02T14:42:15.282Z,40.37
2019-05-02T14:45:03.982Z,43.60
2019-05-02T14:47:17.732Z,38.13
2019-05-02T14:49:42.982Z,39.30
2019-05-02T14:52:12.684Z,43.47
2019-05-02T14:54:43.871Z,40.30
2019-05-02T14:57:17.076Z,43.83
2019-05-02T14:59:43.491Z,41.33
2019-05-02T15:02:13.611Z,40.87
2019-05-02T15:04:44.374Z,44.83
2019-05-02T15:07:12.934Z,46.03
2019-05-02T15:09:41.909Z,43.10
2019-05-02T15:12:17.460Z,43.93
2019-05-02T15:14:40.700Z,44.57
2019-05-02T15:17:09.317Z,42.63
2019-05-02T15:19:37.724Z,44.33
2019-05-02T15:22:06.331Z,43.67
2019-05-02T15:24:37.481Z,43.53
2019-05-02T15:27:11.674Z,43.60
2019-05-02T15:29:35.334Z,43.57
2019-05-02T15:32:17.232Z,48.23
2019-05-02T15:35:05.030Z,54.27
2019-05-02T15:37:35.837Z,52.70
2019-05-02T15:42:36.038Z,51.40
2019-05-02T15:45:06.378Z,53.60
2019-05-02T15:47:37.182Z,56.27
2019-05-02T15:50:06.004Z,52.53
2019-05-02T15:52:36.071Z,55.43
2019-05-02T15:55:07.718Z,56.40
2019-05-02T15:57:42.826Z,55.57
2019-05-02T16:00:09.536Z,58.90
2019-05-02T16:02:37.954Z,54.83
2019-05-02T16:05:11.756Z,60.90
2019-05-02T16:07:43.273Z,54.60
2019-05-02T16:10:13.130Z,57.70
2019-05-02T16:12:43.815Z,52.73
2019-05-02T16:15:21.245Z,59.13
2019-05-02T16:17:45.786Z,56.97
2019-05-02T16:20:20.176Z,56.23
2019-05-02T16:22:49.973Z,59.67
2019-05-02T16:25:20.086Z,60.53
2019-05-02T16:27:49.214Z,53.87
2019-05-02T16:30:23.671Z,55.17
2019-05-02T16:32:53.853Z,56.43
2019-05-02T16:35:23.894Z,54.67
2019-05-02T16:37:56.024Z,63.57
2019-05-02T16:40:29.906Z,57.40
2019-05-02T16:42:53.639Z,58.20
2019-05-02T16:45:23.018Z,61.67
2019-05-02T16:47:58.747Z,60.00
2019-05-02T16:50:22.869Z,54.83
2019-05-02T16:52:53.093Z,61.57
2019-05-02T16:55:26.657Z,56.00
2019-05-02T16:57:56.615Z,59.03
2019-05-02T17:00:24.816Z,62.87
2019-05-02T17:02:53.472Z,53.33
2019-05-02T17:05:22.241Z,62.73
2019-05-02T17:08:10.601Z,58.40
2019-05-02T17:10:42.196Z,54.27
2019-05-02T17:13:12.498Z,56.57
2019-05-02T17:15:42.714Z,59.93
2019-05-02T17:18:13.414Z,62.67
2019-05-02T17:20:41.123Z,62.10
2019-05-02T17:23:09.622Z,59.53
2019-05-02T17:25:38.179Z,64.90
2019-05-02T17:28:10.341Z,64.10
2019-05-02T17:30:39.058Z,63.73
2019-05-02T17:33:12.017Z,60.53
2019-05-02T17:35:43.370Z,61.40
2019-05-02T17:38:09.233Z,60.60
2019-05-02T17:40:37.780Z,59.00
2019-05-02T17:43:06.996Z,54.37
2019-05-02T17:45:38.467Z,55.30
2019-05-02T17:48:08.421Z,56.67
2019-05-02T17:50:44.242Z,49.27
2019-05-02T17:53:12.750Z,52.40
2019-05-02T17:55:44.236Z,52.47
2019-05-02T17:58:14.627Z,48.33
2019-05-02T18:00:54.539Z,53.10
2019-05-02T18:03:24.058Z,54.30
2019-05-02T18:05:49.810Z,48.73
2019-05-02T18:08:18.254Z,47.23
2019-05-02T18:10:50.608Z,45.37
2019-05-02T18:13:16.899Z,49.30
2019-05-02T18:15:45.333Z,46.27
2019-05-02T18:18:13.757Z,44.67
2019-05-02T18:20:46.340Z,50.10
2019-05-02T18:23:12.381Z,44.23
2019-05-02T18:25:40.834Z,49.23
2019-05-02T18:28:14.036Z,48.70
2019-05-02T18:30:41.595Z,49.73
2019-05-02T18:33:09.666Z,42.33
2019-05-02T18:35:45.237Z,46.63
2019-05-02T18:38:08.527Z,41.07
2019-05-02T18:40:36.983Z,50.10
2019-05-02T18:43:05.704Z,43.70
2019-05-02T18:45:34.185Z,45.03
2019-05-02T18:48:06.705Z,41.90
2019-05-02T18:50:43.740Z,45.63
2019-05-02T18:53:09.949Z,44.07
2019-05-02T18:55:38.969Z,42.13
2019-05-02T18:58:09.648Z,36.30
2019-05-02T19:00:39.676Z,44.70
2019-05-02T19:03:13.424Z,42.77
2019-05-02T19:05:42.252Z,40.43
2019-05-02T19:08:12.020Z,41.13
2019-05-02T19:10:44.662Z,43.40
2019-05-02T19:13:12.775Z,40.60
2019-05-02T19:15:45.182Z,44.07
2019-05-02T19:18:17.986Z,39.67
2019-05-02T19:20:56.308Z,43.80
2019-05-02T19:23:22.674Z,41.67
2019-05-02T19:25:52.816Z,44.70
2019-05-02T19:28:23.336Z,45.30
2019-05-02T19:30:52.101Z,46.37
2019-05-02T19:33:21.635Z,46.10
2019-05-02T19:35:52.558Z,42.93
2019-05-02T19:38:24.705Z,49.80
2019-05-02T19:40:52.032Z,48.80
2019-05-02T19:43:22.907Z,48.13
2019-05-02T19:45:53.938Z,44.80
2019-05-02T19:48:22.650Z,46.23
2019-05-02T19:50:51.810Z,45.47
2019-05-02T19:53:20.320Z,47.10
2019-05-02T19:55:48.952Z,45.73
2019-05-02T19:58:17.470Z,47.47
2019-05-02T20:00:46.510Z,46.07
2019-05-02T20:03:21.811Z,49.10
2019-05-02T20:05:48.211Z,44.23
2019-05-02T20:08:22.254Z,46.20
2019-05-02T20:10:49.331Z,52.93
2019-05-02T20:13:20.281Z,52.97
2019-05-02T20:15:47.868Z,48.80
2019-05-02T20:18:16.319Z,47.67
2019-05-02T20:21:02.721Z,37.27
2019-05-02T20:23:35.380Z,26.57
2019-05-02T20:26:01.524Z,20.30
2019-05-02T20:28:31.783Z,17.53
2019-05-02T20:31:01.763Z,18.43
2019-05-02T20:33:32.417Z,18.17
2019-05-02T20:36:01.799Z,15.63
2019-05-02T20:38:32.442Z,17.03
2019-05-02T20:41:02.790Z,17.53
2019-05-02T20:43:32.459Z,14.07
2019-05-02T20:46:07.563Z,17.27
2019-05-02T20:48:36.111Z,14.77
2019-05-02T20:51:04.806Z,15.63
2019-05-02T20:53:34.160Z,15.60
2019-05-02T20:56:02.908Z,15.47
2019-05-02T20:58:32.629Z,15.47
2019-05-02T21:01:06.249Z,19.53
2019-05-02T21:03:32.017Z,16.83
2019-05-02T21:06:05.089Z,15.60
2019-05-02T21:08:47.521Z,14.80
2019-05-02T21:11:16.112Z,14.93
2019-05-02T21:13:44.569Z,15.57
2019-05-02T21:16:13.654Z,17.43
2019-05-02T21:18:42.404Z,15.80
2019-05-02T21:21:12.637Z,18.50
2019-05-02T21:23:47.056Z,19.93
2019-05-02T21:26:11.515Z,15.60
2019-05-02T21:28:40.087Z,13.10
2019-05-02T21:31:08.734Z,11.77
2019-05-02T21:33:39.927Z,12.17
2019-05-02T21:36:08.824Z,11.13
2019-05-02T21:38:37.942Z,10.77
2019-05-02T21:41:09.450Z,9.43
2019-05-02T21:43:37.900Z,7.97
2019-05-02T21:46:06.481Z,6.07
2019-05-02T21:48:35.010Z,5.10
2019-05-02T21:51:12.142Z,7.17
2019-05-02T21:53:58.542Z,5.87
2019-05-02T21:56:44.285Z,8.43
2019-05-02T21:59:13.619Z,10.00
2019-05-02T22:01:55.479Z,4.57
2019-05-02T22:04:24.024Z,7.13
2019-05-02T22:06:52.561Z,4.20
2019-05-02T22:09:23.136Z,6.93
2019-05-02T22:11:52.282Z,10.60
2019-05-02T22:14:22.337Z,9.00
2019-05-02T22:16:52.987Z,4.90
2019-05-02T22:19:21.477Z,7.17
2019-05-02T22:21:52.505Z,10.73
2019-05-02T22:24:21.299Z,13.50
2019-05-02T22:26:52.614Z,11.27
2019-05-02T22:29:21.849Z,7.73
2019-05-02T22:31:52.172Z,6.77
2019-05-02T22:34:22.037Z,5.10
2019-05-02T22:36:53.908Z,9.77
2019-05-02T22:39:38.708Z,10.90
2019-05-02T22:42:07.424Z,10.97
2019-05-02T22:44:35.996Z,7.00
2019-05-02T22:47:04.955Z,6.10
2019-05-02T22:49:34.083Z,12.67
2019-05-02T22:52:02.626Z,10.67
2019-05-02T22:54:33.726Z,11.67
2019-05-02T22:57:02.573Z,9.53
2019-05-02T22:59:31.720Z,8.47
2019-05-02T23:02:01.970Z,13.33
2019-05-02T23:04:32.544Z,11.50
2019-05-02T23:07:02.339Z,9.70
2019-05-02T23:09:31.098Z,12.50
2019-05-02T23:11:59.540Z,7.77
2019-05-02T23:14:27.983Z,4.90
2019-05-02T23:16:56.436Z,8.37
2019-05-02T23:19:24.884Z,10.03
2019-05-02T23:21:53.433Z,11.53
2019-05-02T23:24:40.129Z,12.47
2019-05-02T23:27:11.702Z,9.73
2019-05-02T23:29:42.443Z,6.40
2019-05-02T23:32:10.764Z,12.63
2019-05-02T23:34:39.297Z,10.17
2019-05-02T23:37:07.783Z,10.37
2019-05-02T23:39:36.249Z,10.67
2019-05-02T23:42:04.748Z,10.07
2019-05-02T23:44:33.188Z,9.10
2019-05-02T23:47:02.358Z,10.67
2019-05-02T23:49:32.436Z,13.93
2019-05-02T23:52:02.303Z,8.27
2019-05-02T23:54:32.406Z,10.00
2019-05-02T23:57:01.047Z,9.23
2019-05-02T23:59:31.674Z,17.93
